sensor_id;sensor_type;location;lat;lon;timestamp;P1;durP1;ratioP1;P2;durP2;ratioP2
65174;SDS011;51761;42.126;24.752;2023-01-10T00:01:54;166.60;;;56.33;;
65174;SDS011;51761;42.126;24.752;2023-01-10T00:04:21;142.73;;;53.67;;
65174;SDS011;51761;42.126;24.752;2023-01-10T00:06:47;150.88;;;52.25;;
65174;SDS011;51761;42.126;24.752;2023-01-10T00:09:12;154.88;;;55.13;;
65174;SDS011;51761;42.126;24.752;2023-01-10T00:11:38;150.82;;;51.80;;
65174;SDS011;51761;42.126;24.752;2023-01-10T00:14:22;157.93;;;53.70;;
65174;SDS011;51761;42.126;24.752;2023-01-10T00:16:47;141.38;;;52.00;;
65174;SDS011;51761;42.126;24.752;2023-01-10T00:19:13;159.50;;;53.58;;
65174;SDS011;51761;42.126;24.752;2023-01-10T00:21:38;137.52;;;50.72;;
65174;SDS011;51761;42.126;24.752;2023-01-10T00:24:04;140.27;;;52.88;;
65174;SDS011;51761;42.126;24.752;2023-01-10T00:26:48;143.80;;;50.97;;
65174;SDS011;51761;42.126;24.752;2023-01-10T00:29:25;141.25;;;49.10;;
65174;SDS011;51761;42.126;24.752;2023-01-10T00:34:18;136.68;;;46.38;;
65174;SDS011;51761;42.126;24.752;2023-01-10T00:36:43;138.40;;;46.33;;
65174;SDS011;51761;42.126;24.752;2023-01-10T00:39:11;163.07;;;50.72;;
65174;SDS011;51761;42.126;24.752;2023-01-10T00:41:37;142.68;;;48.53;;
65174;SDS011;51761;42.126;24.752;2023-01-10T00:44:23;149.23;;;50.80;;
65174;SDS011;51761;42.126;24.752;2023-01-10T00:46:48;149.40;;;48.13;;
65174;SDS011;51761;42.126;24.752;2023-01-10T00:49:14;156.50;;;50.22;;
65174;SDS011;51761;42.126;24.752;2023-01-10T00:51:40;156.38;;;51.85;;
65174;SDS011;51761;42.126;24.752;2023-01-10T00:54:10;143.48;;;48.55;;
65174;SDS011;51761;42.126;24.752;2023-01-10T00:56:36;136.43;;;48.53;;
65174;SDS011;51761;42.126;24.752;2023-01-10T00:59:03;150.05;;;48.65;;
65174;SDS011;51761;42.126;24.752;2023-01-10T01:01:29;153.73;;;51.00;;
65174;SDS011;51761;42.126;24.752;2023-01-10T01:03:54;141.23;;;49.10;;
65174;SDS011;51761;42.126;24.752;2023-01-10T01:06:20;130.73;;;47.97;;
65174;SDS011;51761;42.126;24.752;2023-01-10T01:08:46;138.95;;;47.22;;
65174;SDS011;51761;42.126;24.752;2023-01-10T01:11:11;164.95;;;52.05;;
65174;SDS011;51761;42.126;24.752;2023-01-10T01:13:36;136.73;;;49.90;;
65174;SDS011;51761;42.126;24.752;2023-01-10T01:16:02;144.68;;;49.13;;
65174;SDS011;51761;42.126;24.752;2023-01-10T01:18:28;144.57;;;50.53;;
65174;SDS011;51761;42.126;24.752;2023-01-10T01:20:54;152.75;;;52.00;;
65174;SDS011;51761;42.126;24.752;2023-01-10T01:23:21;148.77;;;49.83;;
65174;SDS011;51761;42.126;24.752;2023-01-10T01:25:49;161.48;;;50.80;;
65174;SDS011;51761;42.126;24.752;2023-01-10T01:28:15;141.80;;;49.53;;
65174;SDS011;51761;42.126;24.752;2023-01-10T01:30:41;150.65;;;50.33;;
65174;SDS011;51761;42.126;24.752;2023-01-10T01:33:07;142.38;;;48.30;;
65174;SDS011;51761;42.126;24.752;2023-01-10T01:35:32;153.93;;;49.75;;
65174;SDS011;51761;42.126;24.752;2023-01-10T01:37:58;148.02;;;48.83;;
65174;SDS011;51761;42.126;24.752;2023-01-10T01:40:23;137.57;;;50.72;;
65174;SDS011;51761;42.126;24.752;2023-01-10T01:42:49;137.88;;;48.70;;
65174;SDS011;51761;42.126;24.752;2023-01-10T01:47:49;137.80;;;51.20;;
65174;SDS011;51761;42.126;24.752;2023-01-10T01:50:40;135.40;;;50.67;;
65174;SDS011;51761;42.126;24.752;2023-01-10T01:56:06;135.35;;;50.60;;
65174;SDS011;51761;42.126;24.752;2023-01-10T01:58:40;136.27;;;50.22;;
65174;SDS011;51761;42.126;24.752;2023-01-10T02:01:10;154.63;;;56.38;;
65174;SDS011;51761;42.126;24.752;2023-01-10T02:03:37;145.75;;;54.50;;
65174;SDS011;51761;42.126;24.752;2023-01-10T02:06:05;132.68;;;52.45;;
65174;SDS011;51761;42.126;24.752;2023-01-10T02:08:31;142.50;;;53.50;;
65174;SDS011;51761;42.126;24.752;2023-01-10T02:11:00;138.45;;;51.30;;
65174;SDS011;51761;42.126;24.752;2023-01-10T02:13:39;150.07;;;52.55;;
65174;SDS011;51761;42.126;24.752;2023-01-10T02:16:07;139.23;;;52.80;;
65174;SDS011;51761;42.126;24.752;2023-01-10T02:18:33;133.73;;;52.08;;
65174;SDS011;51761;42.126;24.752;2023-01-10T02:26:22;131.75;;;50.50;;
65174;SDS011;51761;42.126;24.752;2023-01-10T02:42:06;147.80;;;54.70;;
65174;SDS011;51761;42.126;24.752;2023-01-10T02:44:41;151.82;;;51.55;;
65174;SDS011;51761;42.126;24.752;2023-01-10T02:47:12;162.38;;;55.95;;
65174;SDS011;51761;42.126;24.752;2023-01-10T02:49:48;165.32;;;57.30;;
65174;SDS011;51761;42.126;24.752;2023-01-10T02:52:16;153.20;;;54.13;;
65174;SDS011;51761;42.126;24.752;2023-01-10T02:54:46;162.80;;;54.80;;
65174;SDS011;51761;42.126;24.752;2023-01-10T03:10:52;173.07;;;53.92;;
65174;SDS011;51761;42.126;24.752;2023-01-10T03:13:25;163.07;;;54.80;;
65174;SDS011;51761;42.126;24.752;2023-01-10T03:15:54;180.65;;;60.42;;
65174;SDS011;51761;42.126;24.752;2023-01-10T03:18:31;186.52;;;57.15;;
65174;SDS011;51761;42.126;24.752;2023-01-10T03:21:01;174.23;;;57.50;;
65174;SDS011;51761;42.126;24.752;2023-01-10T03:23:29;183.07;;;58.13;;
65174;SDS011;51761;42.126;24.752;2023-01-10T03:25:57;196.55;;;60.60;;
65174;SDS011;51761;42.126;24.752;2023-01-10T03:28:29;179.05;;;56.83;;
65174;SDS011;51761;42.126;24.752;2023-01-10T03:31:14;178.63;;;56.47;;
65174;SDS011;51761;42.126;24.752;2023-01-10T03:33:43;171.75;;;58.28;;
65174;SDS011;51761;42.126;24.752;2023-01-10T03:39:01;166.50;;;54.13;;
65174;SDS011;51761;42.126;24.752;2023-01-10T03:41:36;183.52;;;58.63;;
65174;SDS011;51761;42.126;24.752;2023-01-10T03:49:39;156.57;;;53.47;;
65174;SDS011;51761;42.126;24.752;2023-01-10T03:52:09;182.88;;;60.90;;
65174;SDS011;51761;42.126;24.752;2023-01-10T03:54:38;165.23;;;55.60;;
65174;SDS011;51761;42.126;24.752;2023-01-10T03:57:06;176.82;;;56.33;;
65174;SDS011;51761;42.126;24.752;2023-01-10T03:59:32;182.40;;;56.70;;
65174;SDS011;51761;42.126;24.752;2023-01-10T04:01:58;180.90;;;57.83;;
65174;SDS011;51761;42.126;24.752;2023-01-10T04:04:23;175.23;;;56.13;;
65174;SDS011;51761;42.126;24.752;2023-01-10T04:06:49;162.00;;;55.33;;
65174;SDS011;51761;42.126;24.752;2023-01-10T04:09:14;176.18;;;57.72;;
65174;SDS011;51761;42.126;24.752;2023-01-10T04:11:40;169.15;;;52.15;;
65174;SDS011;51761;42.126;24.752;2023-01-10T04:14:05;161.15;;;53.65;;
65174;SDS011;51761;42.126;24.752;2023-01-10T04:16:31;164.48;;;56.53;;
65174;SDS011;51761;42.126;24.752;2023-01-10T04:18:56;169.77;;;52.28;;
65174;SDS011;51761;42.126;24.752;2023-01-10T04:21:22;168.63;;;55.95;;
65174;SDS011;51761;42.126;24.752;2023-01-10T04:23:47;157.07;;;54.78;;
65174;SDS011;51761;42.126;24.752;2023-01-10T04:26:13;174.98;;;55.95;;
65174;SDS011;51761;42.126;24.752;2023-01-10T04:28:38;170.13;;;55.28;;
65174;SDS011;51761;42.126;24.752;2023-01-10T04:31:04;168.40;;;54.45;;
65174;SDS011;51761;42.126;24.752;2023-01-10T04:33:29;168.77;;;54.42;;
65174;SDS011;51761;42.126;24.752;2023-01-10T04:35:55;153.63;;;52.13;;
65174;SDS011;51761;42.126;24.752;2023-01-10T04:38:20;160.45;;;54.03;;
65174;SDS011;51761;42.126;24.752;2023-01-10T04:40:55;144.65;;;51.17;;
65174;SDS011;51761;42.126;24.752;2023-01-10T04:43:22;158.80;;;53.80;;
65174;SDS011;51761;42.126;24.752;2023-01-10T04:45:49;151.82;;;53.08;;
65174;SDS011;51761;42.126;24.752;2023-01-10T04:48:14;151.68;;;54.58;;
65174;SDS011;51761;42.126;24.752;2023-01-10T04:50:40;173.13;;;58.33;;
65174;SDS011;51761;42.126;24.752;2023-01-10T04:53:05;177.45;;;59.38;;
65174;SDS011;51761;42.126;24.752;2023-01-10T04:55:31;176.05;;;60.63;;
65174;SDS011;51761;42.126;24.752;2023-01-10T04:57:58;172.98;;;60.03;;
65174;SDS011;51761;42.126;24.752;2023-01-10T05:00:24;186.40;;;65.53;;
65174;SDS011;51761;42.126;24.752;2023-01-10T05:02:54;192.13;;;63.30;;
65174;SDS011;51761;42.126;24.752;2023-01-10T05:05:20;198.07;;;65.25;;
65174;SDS011;51761;42.126;24.752;2023-01-10T05:07:45;192.27;;;63.30;;
65174;SDS011;51761;42.126;24.752;2023-01-10T05:10:11;204.55;;;67.18;;
65174;SDS011;51761;42.126;24.752;2023-01-10T05:12:37;195.93;;;61.60;;
65174;SDS011;51761;42.126;24.752;2023-01-10T05:15:03;223.50;;;66.03;;
65174;SDS011;51761;42.126;24.752;2023-01-10T05:17:29;188.52;;;60.60;;
65174;SDS011;51761;42.126;24.752;2023-01-10T05:19:55;189.48;;;62.80;;
65174;SDS011;51761;42.126;24.752;2023-01-10T05:22:20;192.98;;;64.50;;
65174;SDS011;51761;42.126;24.752;2023-01-10T05:24:46;186.60;;;60.40;;
65174;SDS011;51761;42.126;24.752;2023-01-10T05:27:11;188.38;;;58.88;;
65174;SDS011;51761;42.126;24.752;2023-01-10T05:29:37;193.95;;;61.28;;
65174;SDS011;51761;42.126;24.752;2023-01-10T05:32:02;195.38;;;63.33;;
65174;SDS011;51761;42.126;24.752;2023-01-10T05:34:28;193.77;;;66.95;;
65174;SDS011;51761;42.126;24.752;2023-01-10T05:36:53;181.68;;;62.15;;
65174;SDS011;51761;42.126;24.752;2023-01-10T05:39:19;262.60;;;92.00;;
65174;SDS011;51761;42.126;24.752;2023-01-10T05:41:45;192.45;;;64.65;;
65174;SDS011;51761;42.126;24.752;2023-01-10T05:44:11;190.07;;;62.55;;
65174;SDS011;51761;42.126;24.752;2023-01-10T05:46:37;188.02;;;63.80;;
65174;SDS011;51761;42.126;24.752;2023-01-10T05:49:02;200.80;;;68.50;;
65174;SDS011;51761;42.126;24.752;2023-01-10T05:51:28;207.07;;;66.47;;
65174;SDS011;51761;42.126;24.752;2023-01-10T05:53:53;270.92;;;92.30;;
65174;SDS011;51761;42.126;24.752;2023-01-10T05:56:19;210.13;;;77.95;;
65174;SDS011;51761;42.126;24.752;2023-01-10T05:58:44;187.60;;;63.03;;
65174;SDS011;51761;42.126;24.752;2023-01-10T06:01:10;199.00;;;65.72;;
65174;SDS011;51761;42.126;24.752;2023-01-10T06:03:36;187.68;;;61.22;;
65174;SDS011;51761;42.126;24.752;2023-01-10T06:06:01;193.55;;;60.65;;
65174;SDS011;51761;42.126;24.752;2023-01-10T06:08:29;192.25;;;62.63;;
65174;SDS011;51761;42.126;24.752;2023-01-10T06:10:55;237.50;;;84.80;;
65174;SDS011;51761;42.126;24.752;2023-01-10T06:13:21;234.60;;;72.82;;
65174;SDS011;51761;42.126;24.752;2023-01-10T06:15:47;225.52;;;67.25;;
65174;SDS011;51761;42.126;24.752;2023-01-10T06:18:13;206.30;;;64.38;;
65174;SDS011;51761;42.126;24.752;2023-01-10T06:20:39;208.25;;;65.50;;
65174;SDS011;51761;42.126;24.752;2023-01-10T06:23:06;207.75;;;62.08;;
65174;SDS011;51761;42.126;24.752;2023-01-10T06:25:32;216.30;;;62.75;;
65174;SDS011;51761;42.126;24.752;2023-01-10T06:28:00;207.15;;;62.72;;
65174;SDS011;51761;42.126;24.752;2023-01-10T06:30:26;200.15;;;63.25;;
65174;SDS011;51761;42.126;24.752;2023-01-10T06:32:52;219.73;;;65.28;;
65174;SDS011;51761;42.126;24.752;2023-01-10T06:35:17;208.88;;;68.13;;
65174;SDS011;51761;42.126;24.752;2023-01-10T06:37:43;210.85;;;65.53;;
65174;SDS011;51761;42.126;24.752;2023-01-10T06:40:09;269.30;;;88.53;;
65174;SDS011;51761;42.126;24.752;2023-01-10T06:42:35;241.70;;;70.85;;
65174;SDS011;51761;42.126;24.752;2023-01-10T06:45:00;225.20;;;66.85;;
65174;SDS011;51761;42.126;24.752;2023-01-10T06:47:26;229.18;;;64.28;;
65174;SDS011;51761;42.126;24.752;2023-01-10T06:49:52;242.13;;;68.38;;
65174;SDS011;51761;42.126;24.752;2023-01-10T06:52:17;226.40;;;68.05;;
65174;SDS011;51761;42.126;24.752;2023-01-10T06:54:43;257.63;;;75.38;;
65174;SDS011;51761;42.126;24.752;2023-01-10T06:57:08;248.90;;;76.65;;
65174;SDS011;51761;42.126;24.752;2023-01-10T06:59:34;235.90;;;71.15;;
65174;SDS011;51761;42.126;24.752;2023-01-10T07:02:00;232.77;;;71.45;;
65174;SDS011;51761;42.126;24.752;2023-01-10T07:04:25;255.85;;;75.07;;
65174;SDS011;51761;42.126;24.752;2023-01-10T07:06:51;257.20;;;75.80;;
65174;SDS011;51761;42.126;24.752;2023-01-10T07:09:17;269.70;;;75.00;;
65174;SDS011;51761;42.126;24.752;2023-01-10T07:11:43;283.25;;;76.70;;
65174;SDS011;51761;42.126;24.752;2023-01-10T07:14:09;302.20;;;76.32;;
65174;SDS011;51761;42.126;24.752;2023-01-10T07:16:34;290.73;;;79.65;;
65174;SDS011;51761;42.126;24.752;2023-01-10T07:19:00;297.20;;;79.55;;
65174;SDS011;51761;42.126;24.752;2023-01-10T07:21:26;303.23;;;82.28;;
65174;SDS011;51761;42.126;24.752;2023-01-10T07:23:52;312.80;;;84.07;;
65174;SDS011;51761;42.126;24.752;2023-01-10T07:26:17;277.13;;;83.50;;
65174;SDS011;51761;42.126;24.752;2023-01-10T07:28:44;307.52;;;85.15;;
65174;SDS011;51761;42.126;24.752;2023-01-10T07:31:14;294.15;;;80.85;;
65174;SDS011;51761;42.126;24.752;2023-01-10T07:33:41;296.17;;;86.63;;
65174;SDS011;51761;42.126;24.752;2023-01-10T07:36:06;316.60;;;88.88;;
65174;SDS011;51761;42.126;24.752;2023-01-10T07:38:32;325.65;;;86.32;;
65174;SDS011;51761;42.126;24.752;2023-01-10T07:41:00;321.75;;;85.30;;
65174;SDS011;51761;42.126;24.752;2023-01-10T07:43:27;294.23;;;79.68;;
65174;SDS011;51761;42.126;24.752;2023-01-10T07:45:52;313.02;;;85.05;;
65174;SDS011;51761;42.126;24.752;2023-01-10T07:48:17;282.48;;;71.05;;
65174;SDS011;51761;42.126;24.752;2023-01-10T07:50:43;327.15;;;86.90;;
65174;SDS011;51761;42.126;24.752;2023-01-10T07:53:09;356.25;;;93.13;;
65174;SDS011;51761;42.126;24.752;2023-01-10T07:55:35;311.95;;;84.60;;
65174;SDS011;51761;42.126;24.752;2023-01-10T07:58:03;286.15;;;82.80;;
65174;SDS011;51761;42.126;24.752;2023-01-10T08:00:29;289.60;;;81.10;;
65174;SDS011;51761;42.126;24.752;2023-01-10T08:02:55;272.65;;;81.40;;
65174;SDS011;51761;42.126;24.752;2023-01-10T08:05:21;271.90;;;78.07;;
65174;SDS011;51761;42.126;24.752;2023-01-10T08:07:47;245.48;;;73.97;;
65174;SDS011;51761;42.126;24.752;2023-01-10T08:10:12;277.85;;;75.45;;
65174;SDS011;51761;42.126;24.752;2023-01-10T08:12:38;268.77;;;73.68;;
65174;SDS011;51761;42.126;24.752;2023-01-10T08:15:04;285.83;;;76.80;;
65174;SDS011;51761;42.126;24.752;2023-01-10T08:17:33;257.13;;;70.07;;
65174;SDS011;51761;42.126;24.752;2023-01-10T08:19:59;276.40;;;72.50;;
65174;SDS011;51761;42.126;24.752;2023-01-10T08:22:24;277.13;;;75.68;;
65174;SDS011;51761;42.126;24.752;2023-01-10T08:24:50;293.75;;;78.15;;
65174;SDS011;51761;42.126;24.752;2023-01-10T08:27:15;249.50;;;72.90;;
65174;SDS011;51761;42.126;24.752;2023-01-10T08:29:41;266.00;;;72.18;;
65174;SDS011;51761;42.126;24.752;2023-01-10T08:32:07;274.55;;;72.10;;
65174;SDS011;51761;42.126;24.752;2023-01-10T08:34:33;264.98;;;66.50;;
65174;SDS011;51761;42.126;24.752;2023-01-10T08:36:58;248.15;;;68.85;;
65174;SDS011;51761;42.126;24.752;2023-01-10T08:39:23;234.43;;;65.35;;
65174;SDS011;51761;42.126;24.752;2023-01-10T08:41:52;235.90;;;65.88;;
65174;SDS011;51761;42.126;24.752;2023-01-10T08:44:18;229.75;;;66.15;;
65174;SDS011;51761;42.126;24.752;2023-01-10T08:46:44;230.80;;;61.33;;
65174;SDS011;51761;42.126;24.752;2023-01-10T08:49:09;204.85;;;59.20;;
65174;SDS011;51761;42.126;24.752;2023-01-10T08:51:35;230.68;;;61.05;;
65174;SDS011;51761;42.126;24.752;2023-01-10T08:54:01;212.55;;;60.55;;
65174;SDS011;51761;42.126;24.752;2023-01-10T08:56:26;206.52;;;58.90;;
65174;SDS011;51761;42.126;24.752;2023-01-10T08:58:52;224.75;;;61.35;;
65174;SDS011;51761;42.126;24.752;2023-01-10T09:01:17;199.40;;;56.03;;
65174;SDS011;51761;42.126;24.752;2023-01-10T09:03:43;177.35;;;55.00;;
65174;SDS011;51761;42.126;24.752;2023-01-10T09:06:09;186.02;;;53.15;;
65174;SDS011;51761;42.126;24.752;2023-01-10T09:08:35;173.20;;;52.17;;
65174;SDS011;51761;42.126;24.752;2023-01-10T09:11:02;185.45;;;52.75;;
65174;SDS011;51761;42.126;24.752;2023-01-10T09:13:28;164.25;;;50.17;;
65174;SDS011;51761;42.126;24.752;2023-01-10T09:15:54;184.88;;;50.72;;
65174;SDS011;51761;42.126;24.752;2023-01-10T09:18:21;169.93;;;53.35;;
65174;SDS011;51761;42.126;24.752;2023-01-10T09:20:46;190.63;;;51.05;;
65174;SDS011;51761;42.126;24.752;2023-01-10T09:23:15;180.43;;;52.92;;
65174;SDS011;51761;42.126;24.752;2023-01-10T09:25:44;163.60;;;50.92;;
65174;SDS011;51761;42.126;24.752;2023-01-10T09:28:11;173.25;;;49.38;;
65174;SDS011;51761;42.126;24.752;2023-01-10T09:30:39;167.48;;;50.92;;
65174;SDS011;51761;42.126;24.752;2023-01-10T09:33:05;183.65;;;55.70;;
65174;SDS011;51761;42.126;24.752;2023-01-10T09:35:31;186.45;;;55.17;;
65174;SDS011;51761;42.126;24.752;2023-01-10T09:37:59;192.75;;;58.75;;
65174;SDS011;51761;42.126;24.752;2023-01-10T09:43:04;185.15;;;58.03;;
65174;SDS011;51761;42.126;24.752;2023-01-10T09:48:04;177.00;;;52.40;;
65174;SDS011;51761;42.126;24.752;2023-01-10T09:53:23;180.98;;;54.22;;
65174;SDS011;51761;42.126;24.752;2023-01-10T09:55:55;187.45;;;57.63;;
65174;SDS011;51761;42.126;24.752;2023-01-10T09:58:25;183.45;;;57.47;;
65174;SDS011;51761;42.126;24.752;2023-01-10T10:00:58;191.80;;;56.70;;
65174;SDS011;51761;42.126;24.752;2023-01-10T10:03:50;213.73;;;56.95;;
65174;SDS011;51761;42.126;24.752;2023-01-10T10:06:36;181.55;;;54.95;;
65174;SDS011;51761;42.126;24.752;2023-01-10T10:09:02;167.23;;;55.70;;
65174;SDS011;51761;42.126;24.752;2023-01-10T10:11:33;171.00;;;53.58;;
65174;SDS011;51761;42.126;24.752;2023-01-10T10:35:56;194.65;;;58.33;;
65174;SDS011;51761;42.126;24.752;2023-01-10T10:38:28;171.10;;;58.45;;
65174;SDS011;51761;42.126;24.752;2023-01-10T10:41:01;184.70;;;60.35;;
65174;SDS011;51761;42.126;24.752;2023-01-10T10:43:32;176.50;;;54.05;;
65174;SDS011;51761;42.126;24.752;2023-01-10T10:48:39;162.32;;;53.47;;
65174;SDS011;51761;42.126;24.752;2023-01-10T10:53:48;169.05;;;54.67;;
65174;SDS011;51761;42.126;24.752;2023-01-10T10:56:15;164.02;;;53.78;;
65174;SDS011;51761;42.126;24.752;2023-01-10T10:58:44;169.02;;;53.83;;
65174;SDS011;51761;42.126;24.752;2023-01-10T11:01:12;170.95;;;53.22;;
65174;SDS011;51761;42.126;24.752;2023-01-10T11:06:07;162.85;;;55.17;;
65174;SDS011;51761;42.126;24.752;2023-01-10T11:08:37;182.88;;;58.67;;
65174;SDS011;51761;42.126;24.752;2023-01-10T11:11:49;181.15;;;61.53;;
65174;SDS011;51761;42.126;24.752;2023-01-10T11:14:02;191.60;;;55.95;;
65174;SDS011;51761;42.126;24.752;2023-01-10T11:16:37;179.57;;;54.00;;
65174;SDS011;51761;42.126;24.752;2023-01-10T11:19:09;190.10;;;59.60;;
65174;SDS011;51761;42.126;24.752;2023-01-10T11:21:58;196.75;;;65.07;;
65174;SDS011;51761;42.126;24.752;2023-01-10T11:24:33;185.40;;;59.53;;
65174;SDS011;51761;42.126;24.752;2023-01-10T11:27:15;176.95;;;57.67;;
65174;SDS011;51761;42.126;24.752;2023-01-10T11:32:16;163.40;;;54.47;;
65174;SDS011;51761;42.126;24.752;2023-01-10T11:34:48;180.50;;;56.58;;
65174;SDS011;51761;42.126;24.752;2023-01-10T11:37:24;180.65;;;56.10;;
65174;SDS011;51761;42.126;24.752;2023-01-10T11:42:42;201.20;;;60.13;;
65174;SDS011;51761;42.126;24.752;2023-01-10T11:50:47;197.57;;;62.10;;
65174;SDS011;51761;42.126;24.752;2023-01-10T11:55:54;203.23;;;62.33;;
65174;SDS011;51761;42.126;24.752;2023-01-10T11:58:20;221.13;;;72.50;;
65174;SDS011;51761;42.126;24.752;2023-01-10T12:00:46;202.82;;;66.05;;
65174;SDS011;51761;42.126;24.752;2023-01-10T12:05:51;220.57;;;68.20;;
65174;SDS011;51761;42.126;24.752;2023-01-10T12:08:39;197.15;;;65.22;;
65174;SDS011;51761;42.126;24.752;2023-01-10T12:13:45;200.02;;;64.80;;
65174;SDS011;51761;42.126;24.752;2023-01-10T12:18:46;197.55;;;63.03;;
65174;SDS011;51761;42.126;24.752;2023-01-10T12:21:14;208.55;;;77.15;;
65174;SDS011;51761;42.126;24.752;2023-01-10T12:23:44;159.90;;;61.03;;
65174;SDS011;51761;42.126;24.752;2023-01-10T12:26:12;163.45;;;58.00;;
65174;SDS011;51761;42.126;24.752;2023-01-10T12:29:00;186.57;;;62.63;;
65174;SDS011;51761;42.126;24.752;2023-01-10T12:31:28;191.93;;;62.03;;
65174;SDS011;51761;42.126;24.752;2023-01-10T12:33:58;180.20;;;63.05;;
65174;SDS011;51761;42.126;24.752;2023-01-10T12:39:20;155.77;;;54.80;;
65174;SDS011;51761;42.126;24.752;2023-01-10T12:44:57;135.02;;;48.90;;
65174;SDS011;51761;42.126;24.752;2023-01-10T12:47:33;142.15;;;50.55;;
65174;SDS011;51761;42.126;24.752;2023-01-10T12:50:16;133.75;;;47.70;;
65174;SDS011;51761;42.126;24.752;2023-01-10T12:52:54;146.43;;;51.63;;
65174;SDS011;51761;42.126;24.752;2023-01-10T12:55:26;125.13;;;45.55;;
65174;SDS011;51761;42.126;24.752;2023-01-10T12:57:58;136.98;;;47.88;;
65174;SDS011;51761;42.126;24.752;2023-01-10T13:00:35;118.53;;;43.88;;
65174;SDS011;51761;42.126;24.752;2023-01-10T13:03:03;118.68;;;44.08;;
65174;SDS011;51761;42.126;24.752;2023-01-10T13:05:35;133.60;;;47.55;;
65174;SDS011;51761;42.126;24.752;2023-01-10T13:08:09;121.22;;;42.45;;
65174;SDS011;51761;42.126;24.752;2023-01-10T13:10:40;116.20;;;43.10;;
65174;SDS011;51761;42.126;24.752;2023-01-10T13:15:52;113.97;;;44.83;;
65174;SDS011;51761;42.126;24.752;2023-01-10T13:18:28;109.13;;;40.97;;
65174;SDS011;51761;42.126;24.752;2023-01-10T13:21:05;111.80;;;42.10;;
65174;SDS011;51761;42.126;24.752;2023-01-10T13:24:20;123.28;;;46.08;;
65174;SDS011;51761;42.126;24.752;2023-01-10T13:29:23;107.10;;;45.38;;
65174;SDS011;51761;42.126;24.752;2023-01-10T13:31:49;128.25;;;46.03;;
65174;SDS011;51761;42.126;24.752;2023-01-10T13:34:21;119.22;;;46.60;;
65174;SDS011;51761;42.126;24.752;2023-01-10T14:01:20;104.70;;;38.47;;
65174;SDS011;51761;42.126;24.752;2023-01-10T14:04:16;110.05;;;42.03;;
65174;SDS011;51761;42.126;24.752;2023-01-10T14:06:44;99.20;;;41.22;;
65174;SDS011;51761;42.126;24.752;2023-01-10T14:14:18;120.10;;;43.22;;
65174;SDS011;51761;42.126;24.752;2023-01-10T14:16:49;103.78;;;43.67;;
65174;SDS011;51761;42.126;24.752;2023-01-10T14:19:25;99.22;;;41.17;;
65174;SDS011;51761;42.126;24.752;2023-01-10T14:21:53;101.37;;;41.87;;
65174;SDS011;51761;42.126;24.752;2023-01-10T14:24:26;92.40;;;39.83;;
65174;SDS011;51761;42.126;24.752;2023-01-10T14:26:53;101.32;;;42.95;;
65174;SDS011;51761;42.126;24.752;2023-01-10T14:29:20;94.32;;;42.10;;
65174;SDS011;51761;42.126;24.752;2023-01-10T14:31:47;107.43;;;38.88;;
65174;SDS011;51761;42.126;24.752;2023-01-10T14:34:21;98.30;;;40.33;;
65174;SDS011;51761;42.126;24.752;2023-01-10T14:39:32;86.18;;;38.13;;
65174;SDS011;51761;42.126;24.752;2023-01-10T14:42:04;91.43;;;39.38;;
65174;SDS011;51761;42.126;24.752;2023-01-10T14:47:29;146.23;;;63.80;;
65174;SDS011;51761;42.126;24.752;2023-01-10T14:49:56;118.20;;;46.05;;
65174;SDS011;51761;42.126;24.752;2023-01-10T14:52:26;102.15;;;42.83;;
65174;SDS011;51761;42.126;24.752;2023-01-10T15:02:58;102.47;;;43.30;;
65174;SDS011;51761;42.126;24.752;2023-01-10T15:05:28;98.82;;;41.38;;
65174;SDS011;51761;42.126;24.752;2023-01-10T15:08:18;89.40;;;39.72;;
65174;SDS011;51761;42.126;24.752;2023-01-10T15:10:44;85.40;;;39.28;;
65174;SDS011;51761;42.126;24.752;2023-01-10T15:13:15;87.35;;;39.20;;
65174;SDS011;51761;42.126;24.752;2023-01-10T15:15:44;91.47;;;39.47;;
65174;SDS011;51761;42.126;24.752;2023-01-10T15:20:43;91.95;;;42.13;;
65174;SDS011;51761;42.126;24.752;2023-01-10T15:23:11;88.93;;;37.63;;
65174;SDS011;51761;42.126;24.752;2023-01-10T15:25:38;86.65;;;38.35;;
65174;SDS011;51761;42.126;24.752;2023-01-10T15:28:12;86.20;;;36.78;;
65174;SDS011;51761;42.126;24.752;2023-01-10T15:30:39;84.13;;;38.42;;
65174;SDS011;51761;42.126;24.752;2023-01-10T15:33:16;90.15;;;39.75;;
65174;SDS011;51761;42.126;24.752;2023-01-10T15:35:47;92.15;;;40.50;;
65174;SDS011;51761;42.126;24.752;2023-01-10T15:38:17;85.20;;;39.50;;
65174;SDS011;51761;42.126;24.752;2023-01-10T15:40:51;98.63;;;45.13;;
65174;SDS011;51761;42.126;24.752;2023-01-10T15:43:25;92.82;;;39.75;;
65174;SDS011;51761;42.126;24.752;2023-01-10T15:45:53;80.60;;;38.17;;
65174;SDS011;51761;42.126;24.752;2023-01-10T15:48:25;87.22;;;38.40;;
65174;SDS011;51761;42.126;24.752;2023-01-10T15:51:10;78.88;;;37.13;;
65174;SDS011;51761;42.126;24.752;2023-01-10T15:56:21;101.10;;;44.53;;
65174;SDS011;51761;42.126;24.752;2023-01-10T15:58:52;111.65;;;49.03;;
65174;SDS011;51761;42.126;24.752;2023-01-10T16:01:18;97.28;;;44.22;;
65174;SDS011;51761;42.126;24.752;2023-01-10T16:03:44;86.18;;;37.72;;
65174;SDS011;51761;42.126;24.752;2023-01-10T16:06:17;72.93;;;32.83;;
65174;SDS011;51761;42.126;24.752;2023-01-10T16:08:46;67.60;;;33.42;;
65174;SDS011;51761;42.126;24.752;2023-01-10T16:11:18;70.95;;;34.78;;
65174;SDS011;51761;42.126;24.752;2023-01-10T16:14:06;68.18;;;34.50;;
65174;SDS011;51761;42.126;24.752;2023-01-10T16:16:32;69.22;;;34.20;;
65174;SDS011;51761;42.126;24.752;2023-01-10T16:18:57;69.20;;;36.25;;
65174;SDS011;51761;42.126;24.752;2023-01-10T16:21:23;74.50;;;36.63;;
65174;SDS011;51761;42.126;24.752;2023-01-10T16:23:53;66.47;;;35.08;;
65174;SDS011;51761;42.126;24.752;2023-01-10T16:26:18;74.40;;;34.20;;
65174;SDS011;51761;42.126;24.752;2023-01-10T16:28:44;64.85;;;32.58;;
65174;SDS011;51761;42.126;24.752;2023-01-10T16:31:10;62.05;;;30.80;;
65174;SDS011;51761;42.126;24.752;2023-01-10T16:33:38;60.55;;;30.67;;
65174;SDS011;51761;42.126;24.752;2023-01-10T16:36:08;63.30;;;32.10;;
65174;SDS011;51761;42.126;24.752;2023-01-10T16:41:04;60.38;;;27.27;;
65174;SDS011;51761;42.126;24.752;2023-01-10T16:43:52;52.95;;;26.73;;
65174;SDS011;51761;42.126;24.752;2023-01-10T16:46:17;54.33;;;27.83;;
65174;SDS011;51761;42.126;24.752;2023-01-10T16:48:43;50.10;;;26.23;;
65174;SDS011;51761;42.126;24.752;2023-01-10T16:51:18;47.25;;;25.13;;
65174;SDS011;51761;42.126;24.752;2023-01-10T16:53:48;48.25;;;25.27;;
65174;SDS011;51761;42.126;24.752;2023-01-10T16:56:16;63.40;;;32.00;;
65174;SDS011;51761;42.126;24.752;2023-01-10T16:58:44;56.50;;;28.70;;